Palm Beach Gardens, Florida
Current Conditions -  °F | °C
As of 12:53 AM on Wednesday 28 Jan 2015 (Local Time) from KPBI Reporting Station
Few Clouds Few Clouds  
Wind Chill: 55°   Ceiling: Unl
Heat Index: 55°   Visibility: 10mi
Dew Point: 50°   Wind: 7mph
Humidity: 83%   Direction: 280°W
Pressure: 30.03"   Gusts: NA
Location:  26.85°N, 80.09°W
Report Text: KPBI 280553Z 28006KT 10SM FEW037 13/10 A3003 RMK AO2 SLP168 T01280100 10178 20128 51002
Loading
Personal Weather Stations






























Interactive Weather Map New forecast layout! Learn more

10-Day Weather Forecast

Advertisements
Track Severe Weather on mobile